Time;durP1;ratioP1;P1;durP2;ratioP2;P2;SDS_P1;SDS_P2;PMS_P1;PMS_P2;Temp;Humidity;BMP_temperature;BMP_pressure;BME280_temperature;BME280_humidity;BME280_pressure;Samples;Min_cycle;Max_cycle;Signal;HPM_P1;HPM_P2
2022/12/11 00:00:52;;;;;;;42.10;19.35;;;4.50;70.80;;;;;;5020879;28;20421;-50
2022/12/11 00:03:19;;;;;;;46.67;20.20;;;4.50;70.80;;;;;;5028802;28;20124;-51
2022/12/11 00:05:46;;;;;;;40.97;18.15;;;4.50;70.90;;;;;;5007695;28;20403;-54
2022/12/11 00:08:14;;;;;;;42.95;19.40;;;4.50;70.90;;;;;;5012093;28;20466;-49
2022/12/11 00:10:48;;;;;;;42.03;18.50;;;4.50;70.90;;;;;;5013400;28;20037;-53
2022/12/11 00:13:17;;;;;;;37.10;19.73;;;4.50;70.90;;;;;;5021263;28;20053;-52
2022/12/11 00:15:46;;;;;;;39.78;19.38;;;4.50;70.90;;;;;;5030290;28;20140;-51
2022/12/11 00:18:13;;;;;;;38.05;18.38;;;4.50;70.80;;;;;;5015610;28;20037;-54
2022/12/11 00:20:45;;;;;;;39.20;18.10;;;4.60;70.80;;;;;;5015285;28;20121;-52
2022/12/11 00:23:12;;;;;;;43.30;19.23;;;4.60;70.70;;;;;;5008855;28;20062;-49
2022/12/11 00:25:43;;;;;;;45.55;20.52;;;4.60;70.70;;;;;;5025000;28;20038;-52
2022/12/11 00:28:11;;;;;;;44.00;20.97;;;4.60;71.30;;;;;;5024248;28;20387;-51
2022/12/11 00:30:40;;;;;;;42.60;21.50;;;4.60;70.60;;;;;;5028654;28;20045;-53
2022/12/11 00:33:07;;;;;;;46.20;20.77;;;4.60;70.60;;;;;;5013016;28;20056;-50
2022/12/11 00:35:38;;;;;;;44.78;22.38;;;4.70;70.70;;;;;;5019780;28;20057;-52
2022/12/11 00:38:05;;;;;;;39.78;20.13;;;4.70;70.70;;;;;;5029136;28;20049;-52
2022/12/11 00:40:35;;;;;;;43.13;21.63;;;4.70;70.60;;;;;;5017750;28;20042;-52
2022/12/11 00:43:02;;;;;;;42.53;21.90;;;4.70;70.60;;;;;;5007884;28;20041;-50
2022/12/11 00:45:29;;;;;;;45.15;22.75;;;4.70;70.50;;;;;;5018593;28;20048;-55
2022/12/11 00:47:56;;;;;;;41.35;20.52;;;4.80;70.50;;;;;;5028904;28;20095;-51
2022/12/11 00:50:23;;;;;;;51.38;22.10;;;4.80;70.50;;;;;;5011975;28;20049;-52
2022/12/11 00:52:51;;;;;;;41.65;21.17;;;4.80;70.50;;;;;;5019232;28;20448;-54
2022/12/11 00:55:18;;;;;;;41.72;20.25;;;4.80;70.40;;;;;;5009122;28;20060;-50
2022/12/11 00:57:45;;;;;;;40.00;19.08;;;4.80;70.40;;;;;;5013246;28;20552;-52
2022/12/11 01:00:14;;;;;;;44.33;21.25;;;4.80;70.30;;;;;;5006270;28;20494;-55
2022/12/11 01:02:41;;;;;;;43.40;21.60;;;4.80;70.30;;;;;;5017833;28;20037;-52
2022/12/11 01:05:09;;;;;;;42.58;20.88;;;4.80;70.30;;;;;;5020801;28;20041;-51
2022/12/11 01:07:38;;;;;;;40.28;20.27;;;4.90;70.40;;;;;;5028146;28;20092;-54
2022/12/11 01:10:23;;;;;;;38.75;20.10;;;4.90;70.30;;;;;;5019023;28;20394;-51
2022/12/11 01:13:05;;;;;;;45.00;20.75;;;4.90;70.30;;;;;;5008266;28;20418;-51
2022/12/11 01:15:37;;;;;;;42.67;21.53;;;4.90;70.00;;;;;;5021407;28;20128;-50
2022/12/11 01:18:08;;;;;;;35.92;19.70;;;4.90;70.00;;;;;;5027446;28;20064;-50
2022/12/11 01:20:38;;;;;;;44.25;21.17;;;4.90;70.00;;;;;;5007048;28;20046;-54
2022/12/11 01:23:05;;;;;;;36.80;18.50;;;4.90;70.10;;;;;;5024346;28;20037;-54
2022/12/11 01:25:37;;;;;;;39.35;18.00;;;4.80;70.00;;;;;;5013809;28;20042;-51
2022/12/11 01:28:05;;;;;;;39.38;19.20;;;4.80;70.20;;;;;;5015310;28;20033;-54
2022/12/11 01:30:32;;;;;;;36.97;18.27;;;4.80;70.60;;;;;;5022144;28;20048;-50
2022/12/11 01:32:59;;;;;;;43.53;19.65;;;4.80;70.70;;;;;;5031777;28;20041;-54
2022/12/11 01:35:30;;;;;;;38.17;19.48;;;4.80;70.90;;;;;;5032513;28;20053;-51
2022/12/11 01:37:56;;;;;;;37.55;19.15;;;4.80;71.10;;;;;;5006803;28;20533;-50
2022/12/11 01:40:23;;;;;;;34.95;18.48;;;4.80;71.10;;;;;;5027636;28;20520;-50
2022/12/11 01:42:50;;;;;;;33.30;18.67;;;4.80;71.20;;;;;;5024819;28;20060;-52
2022/12/11 01:45:26;;;;;;;35.85;18.40;;;4.80;71.20;;;;;;5032204;28;20060;-50
2022/12/11 01:48:18;;;;;;;37.53;20.00;;;4.80;71.10;;;;;;5019454;28;20052;-55
2022/12/11 01:51:01;;;;;;;30.05;13.43;;;4.80;71.00;;;;;;5012296;28;20049;-54
2022/12/11 01:53:32;;;;;;;35.33;17.60;;;4.80;71.00;;;;;;5020190;28;20406;-54
2022/12/11 01:56:17;;;;;;;37.28;17.88;;;4.80;70.80;;;;;;5009591;28;20029;-54
2022/12/11 01:58:48;;;;;;;37.22;18.33;;;4.90;70.80;;;;;;5017687;28;20041;-50
2022/12/11 02:01:26;;;;;;;34.50;18.60;;;4.80;71.00;;;;;;5023817;28;20038;-52
2022/12/11 02:03:54;;;;;;;36.45;18.10;;;4.80;70.90;;;;;;5031767;28;20068;-51
2022/12/11 02:06:31;;;;;;;37.92;18.98;;;4.80;70.80;;;;;;5016125;28;20038;-50
2022/12/11 02:08:59;;;;;;;35.85;18.40;;;4.80;70.90;;;;;;5018470;28;20040;-50
2022/12/11 02:11:44;;;;;;;38.40;17.30;;;4.80;71.20;;;;;;5022949;28;20059;-54
2022/12/11 02:14:47;;;;;;;33.47;17.88;;;4.80;71.00;;;;;;5032005;28;20512;-53
2022/12/11 02:17:23;;;;;;;;;;;4.90;71.10;;;;;;5015133;28;20738;-50
2022/12/11 02:20:14;;;;;;;27.55;14.57;;;4.90;71.10;;;;;;5023829;28;20274;-54
2022/12/11 02:23:00;;;;;;;;;;;4.90;70.60;;;;;;5024980;28;20046;-54
2022/12/11 02:26:13;;;;;;;34.65;14.90;;;4.90;70.80;;;;;;5011069;28;19964;-53
2022/12/11 02:28:52;;;;;;;29.67;14.95;;;4.90;70.80;;;;;;5022394;28;20576;-53
2022/12/11 02:31:35;;;;;;;29.30;15.18;;;4.90;70.60;;;;;;5031755;28;20107;-54
2022/12/11 02:34:15;;;;;;;31.73;17.20;;;4.90;70.70;;;;;;5021991;28;20112;-49
2022/12/11 02:36:49;;;;;;;36.10;18.05;;;4.80;70.70;;;;;;5015934;28;20044;-52
2022/12/11 02:39:21;;;;;;;31.15;16.75;;;4.80;70.70;;;;;;5023499;28;20075;-53
2022/12/11 02:41:50;;;;;;;33.55;16.67;;;4.80;70.80;;;;;;5031130;28;20045;-49
2022/12/11 02:44:23;;;;;;;32.53;17.88;;;4.80;70.80;;;;;;5014237;28;20113;-54
2022/12/11 02:46:51;;;;;;;32.28;17.38;;;4.90;71.00;;;;;;5024128;28;20409;-52
2022/12/11 02:49:20;;;;;;;32.85;17.20;;;4.80;71.00;;;;;;5006095;28;20034;-50
2022/12/11 02:51:51;;;;;;;32.95;17.42;;;4.80;71.00;;;;;;5019608;28;20046;-53
2022/12/11 02:54:25;;;;;;;30.45;16.98;;;4.80;71.00;;;;;;5013081;28;20524;-55
2022/12/11 02:57:08;;;;;;;34.13;18.13;;;4.80;71.00;;;;;;5009018;28;20045;-50
2022/12/11 02:59:36;;;;;;;;;;;4.80;71.00;;;;;;5021560;28;20574;-51
2022/12/11 03:02:04;;;;;;;35.53;16.58;;;4.90;71.20;;;;;;5010405;28;19927;-53
2022/12/11 03:04:35;;;;;;;34.03;18.30;;;4.80;70.60;;;;;;5022442;28;20099;-49
2022/12/11 03:07:24;;;;;;;39.50;20.65;;;4.80;70.70;;;;;;5031146;28;20133;-50
2022/12/11 03:09:53;;;;;;;38.45;17.95;;;4.80;70.80;;;;;;5022637;28;20037;-50
2022/12/11 03:12:27;;;;;;;35.60;18.92;;;4.80;70.80;;;;;;5005297;28;20042;-51
2022/12/11 03:14:54;;;;;;;44.25;20.95;;;4.80;70.80;;;;;;5016085;28;20042;-52
2022/12/11 03:17:24;;;;;;;37.70;18.67;;;4.80;70.70;;;;;;5026750;28;20049;-52
2022/12/11 03:20:22;;;;;;;36.70;19.52;;;4.80;70.60;;;;;;5026941;28;20045;-51
2022/12/11 03:22:59;;;;;;;38.85;19.45;;;4.80;71.00;;;;;;5014598;28;20053;-53
2022/12/11 03:25:40;;;;;;;36.17;18.90;;;4.80;70.80;;;;;;5023253;28;20072;-50
2022/12/11 03:28:11;;;;;;;35.30;19.02;;;4.80;70.80;;;;;;5019351;28;20038;-55
2022/12/11 03:30:40;;;;;;;36.35;19.70;;;4.70;70.80;;;;;;5010050;28;20053;-52
2022/12/11 03:33:12;;;;;;;41.25;19.15;;;4.80;70.90;;;;;;5019706;28;20405;-50
2022/12/11 03:35:42;;;;;;;40.92;20.23;;;4.80;70.80;;;;;;5022838;28;20164;-50
2022/12/11 03:38:19;;;;;;;39.13;19.35;;;4.80;70.80;;;;;;5030089;28;20041;-51
2022/12/11 03:40:50;;;;;;;37.80;20.27;;;4.80;70.90;;;;;;5017566;28;20045;-51
2022/12/11 03:43:18;;;;;;;37.60;20.27;;;4.80;70.90;;;;;;5019847;28;20132;-50
2022/12/11 03:45:48;;;;;;;35.90;19.58;;;4.80;70.90;;;;;;4989436;28;20061;-50
2022/12/11 03:48:18;;;;;;;38.38;20.95;;;4.80;71.00;;;;;;4991891;28;20043;-53
2022/12/11 03:50:48;;;;;;;38.25;20.40;;;4.80;71.00;;;;;;5010048;28;20033;-52
2022/12/11 03:53:17;;;;;;;33.08;18.65;;;4.80;71.00;;;;;;5018423;28;20116;-54
2022/12/11 03:55:47;;;;;;;40.47;19.48;;;4.80;70.90;;;;;;5010140;28;20529;-51
2022/12/11 03:58:16;;;;;;;36.20;19.02;;;4.80;70.90;;;;;;5010566;28;20116;-51
2022/12/11 04:00:42;;;;;;;37.13;18.85;;;4.80;70.90;;;;;;5019882;28;20498;-51
2022/12/11 04:03:11;;;;;;;37.47;20.60;;;4.80;70.90;;;;;;5025089;28;20045;-50
2022/12/11 04:05:46;;;;;;;34.03;20.17;;;4.90;71.00;;;;;;5029022;28;20037;-51
2022/12/11 04:08:17;;;;;;;39.83;20.17;;;4.90;71.00;;;;;;5006703;28;20037;-52
2022/12/11 04:10:44;;;;;;;40.97;20.42;;;4.90;71.00;;;;;;5025731;28;20117;-49
2022/12/11 04:13:11;;;;;;;35.20;20.13;;;4.90;71.00;;;;;;5024878;28;20037;-52
2022/12/11 04:15:39;;;;;;;35.00;19.90;;;4.90;70.90;;;;;;5021889;28;20074;-53
2022/12/11 04:26:25;;;;;;;38.88;18.60;;;5.00;70.80;;;;;;5013049;28;20982;-52
2022/12/11 04:28:51;;;;;;;33.75;18.08;;;5.00;70.70;;;;;;5014903;28;20033;-52
2022/12/11 04:31:21;;;;;;;35.15;18.92;;;5.00;70.50;;;;;;5022233;28;20042;-52
2022/12/11 04:33:48;;;;;;;30.50;17.23;;;5.00;70.60;;;;;;5029523;28;20111;-50
2022/12/11 04:36:17;;;;;;;31.13;16.75;;;5.00;70.50;;;;;;5012672;28;20044;-50
2022/12/11 04:38:45;;;;;;;31.30;17.83;;;5.00;70.60;;;;;;5020324;28;20108;-54
2022/12/11 04:41:13;;;;;;;29.42;17.60;;;5.00;70.50;;;;;;5024388;28;20406;-54
2022/12/11 04:43:44;;;;;;;30.65;16.63;;;5.00;70.40;;;;;;5029485;28;20048;-53
2022/12/11 04:46:16;;;;;;;31.30;17.02;;;5.00;70.40;;;;;;5008458;28;20037;-52
2022/12/11 04:48:43;;;;;;;27.38;16.63;;;5.00;70.40;;;;;;5011510;28;20049;-54
2022/12/11 04:51:20;;;;;;;30.17;15.90;;;4.90;70.30;;;;;;5004046;28;20038;-51
2022/12/11 04:53:47;;;;;;;30.05;16.42;;;4.90;70.30;;;;;;5001651;28;20042;-54
2022/12/11 04:56:17;;;;;;;29.42;16.08;;;4.90;70.30;;;;;;5005753;28;20046;-51
2022/12/11 04:58:44;;;;;;;33.53;16.05;;;4.90;70.30;;;;;;5013256;28;20049;-54
2022/12/11 05:01:21;;;;;;;30.90;15.85;;;4.90;70.30;;;;;;5003610;28;20048;-53
2022/12/11 05:03:49;;;;;;;30.63;15.38;;;4.90;70.40;;;;;;5005201;28;20030;-54
2022/12/11 05:06:15;;;;;;;29.25;16.25;;;4.90;70.40;;;;;;5017656;23;20053;-61
2022/12/11 05:08:46;;;;;;;27.10;15.35;;;4.90;70.50;;;;;;4988070;28;20125;-61
2022/12/11 05:11:14;;;;;;;26.83;15.63;;;4.90;70.40;;;;;;4986645;28;20039;-61
2022/12/11 05:13:42;;;;;;;29.13;15.25;;;4.90;70.40;;;;;;4992839;28;20042;-61
2022/12/11 05:16:11;;;;;;;26.90;14.68;;;4.90;70.50;;;;;;4981133;28;20073;-61
2022/12/11 05:18:39;;;;;;;24.35;14.20;;;4.90;70.50;;;;;;4975431;28;20049;-61
2022/12/11 05:21:09;;;;;;;27.48;15.48;;;4.90;70.40;;;;;;4980945;28;20411;-59
2022/12/11 05:23:37;;;;;;;25.33;13.85;;;4.90;70.40;;;;;;4971336;28;20053;-59
2022/12/11 05:26:16;;;;;;;30.35;15.15;;;4.90;70.30;;;;;;4986914;28;20046;-59
2022/12/11 05:28:43;;;;;;;28.17;15.90;;;5.00;70.20;;;;;;4986183;28;20049;-59
2022/12/11 05:31:17;;;;;;;25.90;14.73;;;5.00;70.30;;;;;;4973938;28;20408;-59
2022/12/11 05:33:45;;;;;;;23.65;13.23;;;5.00;70.20;;;;;;4978380;28;20081;-59
2022/12/11 05:36:18;;;;;;;25.00;13.98;;;5.00;70.20;;;;;;4971666;28;20573;-59
2022/12/11 05:38:48;;;;;;;25.98;13.68;;;5.00;70.30;;;;;;4967647;28;20047;-59
2022/12/11 05:41:17;;;;;;;25.35;14.60;;;5.00;70.30;;;;;;4970854;28;20039;-58
2022/12/11 05:43:46;;;;;;;26.92;13.68;;;5.00;70.30;;;;;;4972026;28;20074;-59
2022/12/11 05:46:18;;;;;;;22.65;13.50;;;5.00;70.20;;;;;;4968259;28;20062;-59
2022/12/11 05:48:51;;;;;;;22.83;12.80;;;5.00;70.20;;;;;;4964032;28;20050;-59
2022/12/11 05:51:20;;;;;;;22.58;12.43;;;5.00;70.20;;;;;;4974121;28;20112;-59
2022/12/11 05:53:51;;;;;;;19.92;12.55;;;5.00;70.00;;;;;;4972015;28;20043;-59
2022/12/11 05:56:26;;;;;;;27.35;13.88;;;5.00;69.90;;;;;;4967320;28;20062;-59
2022/12/11 05:58:54;;;;;;;25.55;13.30;;;5.00;69.80;;;;;;4971046;28;20057;-59
2022/12/11 06:01:38;;;;;;;23.83;13.70;;;5.00;69.80;;;;;;4972955;28;20053;-59
2022/12/11 06:04:07;;;;;;;25.38;13.15;;;5.00;69.80;;;;;;4981705;28;20133;-59
2022/12/11 06:06:33;;;;;;;22.30;12.77;;;5.00;69.90;;;;;;4990968;28;20046;-59
2022/12/11 06:09:03;;;;;;;26.10;13.40;;;5.00;69.90;;;;;;4973525;28;20604;-59
2022/12/11 06:11:32;;;;;;;21.67;12.90;;;5.00;69.90;;;;;;4982812;28;20049;-58
2022/12/11 06:14:01;;;;;;;24.70;12.48;;;5.00;69.70;;;;;;4985919;28;20049;-59
2022/12/11 06:16:30;;;;;;;24.63;12.98;;;5.00;69.70;;;;;;4980572;28;20416;-59
2022/12/11 06:19:02;;;;;;;20.27;12.18;;;5.00;69.60;;;;;;4966456;28;20404;-59
2022/12/11 06:21:30;;;;;;;22.38;11.88;;;5.00;69.60;;;;;;4981749;28;20042;-59
2022/12/11 06:24:04;;;;;;;17.42;10.30;;;5.00;69.50;;;;;;4983931;28;20411;-59
2022/12/11 06:26:34;;;;;;;19.95;11.65;;;5.00;69.60;;;;;;4973755;28;20483;-59
2022/12/11 06:29:01;;;;;;;20.58;12.30;;;5.00;69.70;;;;;;4972731;28;20039;-59
2022/12/11 06:31:33;;;;;;;22.77;11.90;;;5.00;69.60;;;;;;4982783;28;20059;-59
2022/12/11 06:34:02;;;;;;;22.27;12.38;;;5.00;69.70;;;;;;4976639;28;20039;-59
2022/12/11 06:36:31;;;;;;;26.98;12.18;;;5.00;69.70;;;;;;4980011;28;20069;-58
2022/12/11 06:38:57;;;;;;;19.65;12.20;;;5.00;69.50;;;;;;4977259;28;20046;-59
2022/12/11 06:41:24;;;;;;;20.50;12.40;;;5.00;69.40;;;;;;4990584;28;20042;-59
2022/12/11 06:43:52;;;;;;;20.10;10.45;;;5.00;69.20;;;;;;4952139;28;20137;-59
2022/12/11 06:46:19;;;;;;;19.52;10.82;;;5.00;68.90;;;;;;4955352;28;20791;-59
2022/12/11 06:48:49;;;;;;;18.73;11.20;;;5.00;68.80;;;;;;4982810;28;20567;-59
2022/12/11 06:51:22;;;;;;;19.58;10.63;;;5.00;68.60;;;;;;4973682;28;20142;-59
2022/12/11 06:53:56;;;;;;;17.50;10.60;;;4.90;68.60;;;;;;4976592;28;20085;-59
2022/12/11 06:56:27;;;;;;;16.98;10.20;;;4.90;68.80;;;;;;4970416;28;20134;-59
2022/12/11 06:58:55;;;;;;;16.52;10.05;;;4.90;68.80;;;;;;4973614;28;20043;-59
2022/12/11 07:01:26;;;;;;;16.98;9.68;;;4.90;69.00;;;;;;4977360;28;20525;-58
2022/12/11 07:03:57;;;;;;;18.15;10.60;;;4.90;69.00;;;;;;4972014;28;20527;-59
2022/12/11 07:06:27;;;;;;;16.52;9.77;;;5.00;69.00;;;;;;4992377;28;20042;-58
2022/12/11 07:08:57;;;;;;;19.63;10.23;;;5.00;69.20;;;;;;4974426;28;20105;-52
2022/12/11 07:11:28;;;;;;;18.98;10.02;;;5.00;69.20;;;;;;4978759;28;20060;-52
2022/12/11 07:14:00;;;;;;;17.75;9.57;;;5.00;69.00;;;;;;4991218;28;20082;-50
2022/12/11 07:16:29;;;;;;;18.75;11.10;;;5.00;69.10;;;;;;4975083;28;20054;-54
2022/12/11 07:18:58;;;;;;;21.30;12.10;;;5.00;69.10;;;;;;4984938;28;20125;-51
2022/12/11 07:21:25;;;;;;;20.10;11.65;;;5.00;69.00;;;;;;4986184;28;20046;-50
2022/12/11 07:23:55;;;;;;;19.58;12.05;;;5.00;68.90;;;;;;4975982;28;20054;-53
2022/12/11 07:26:22;;;;;;;19.92;12.65;;;5.00;68.90;;;;;;4982347;28;20117;-54
2022/12/11 07:28:48;;;;;;;19.15;12.55;;;5.00;68.70;;;;;;4970068;28;20411;-54
2022/12/11 07:31:21;;;;;;;18.55;11.50;;;5.00;68.60;;;;;;4969732;28;20090;-50
2022/12/11 07:33:55;;;;;;;18.10;11.77;;;5.10;68.30;;;;;;4973181;28;20542;-50
2022/12/11 07:36:22;;;;;;;18.50;10.38;;;5.10;68.10;;;;;;4971417;28;20043;-54
2022/12/11 07:38:51;;;;;;;18.83;11.38;;;5.00;68.10;;;;;;4969216;28;20754;-54
2022/12/11 07:41:18;;;;;;;19.65;11.43;;;5.00;68.00;;;;;;4973600;28;20042;-54
2022/12/11 07:43:55;;;;;;;16.98;9.75;;;5.00;68.00;;;;;;4970057;28;20050;-53
2022/12/11 07:46:27;;;;;;;15.18;9.70;;;5.00;68.00;;;;;;4959728;28;20041;-52
2022/12/11 07:48:53;;;;;;;15.88;10.15;;;5.00;67.90;;;;;;4951605;28;20463;-54
2022/12/11 07:51:25;;;;;;;18.52;11.20;;;4.90;67.80;;;;;;4965924;28;20042;-53
2022/12/11 07:53:53;;;;;;;15.00;10.30;;;4.90;67.60;;;;;;4964759;28;20623;-54
2022/12/11 07:56:21;;;;;;;16.48;10.65;;;4.90;67.50;;;;;;4974196;28;20057;-53
2022/12/11 07:58:47;;;;;;;19.15;10.73;;;4.90;67.40;;;;;;4981955;28;20070;-52
2022/12/11 08:01:17;;;;;;;17.05;10.18;;;4.90;67.50;;;;;;4990250;28;20049;-53
2022/12/11 08:03:44;;;;;;;18.02;11.77;;;4.90;67.60;;;;;;4973044;28;20042;-54
2022/12/11 08:06:11;;;;;;;17.17;11.90;;;4.80;67.60;;;;;;4968661;28;20038;-54
2022/12/11 08:08:40;;;;;;;19.00;10.95;;;4.90;67.80;;;;;;4975417;28;20047;-53
2022/12/11 08:11:09;;;;;;;19.08;11.48;;;4.80;67.70;;;;;;4969724;28;20047;-54
2022/12/11 08:13:36;;;;;;;15.90;10.98;;;4.80;67.50;;;;;;4965778;28;20143;-54
2022/12/11 08:16:05;;;;;;;16.75;11.57;;;4.80;67.60;;;;;;4971383;28;20030;-53
2022/12/11 08:18:33;;;;;;;20.63;12.15;;;4.80;67.70;;;;;;4970565;28;20523;-53
2022/12/11 08:21:08;;;;;;;18.90;12.65;;;4.80;67.70;;;;;;4969805;28;20499;-54
2022/12/11 08:23:35;;;;;;;17.10;12.45;;;4.80;67.50;;;;;;4967325;28;20672;-52
2022/12/11 08:26:03;;;;;;;19.60;12.00;;;4.80;67.70;;;;;;4969947;28;20117;-53
2022/12/11 08:28:30;;;;;;;19.02;12.40;;;4.90;68.00;;;;;;4970935;28;20031;-53
2022/12/11 08:30:57;;;;;;;17.90;11.55;;;4.90;68.00;;;;;;4968503;28;20494;-54
2022/12/11 08:33:24;;;;;;;17.60;11.93;;;4.90;68.00;;;;;;4969503;28;20042;-52
2022/12/11 08:35:51;;;;;;;17.90;11.27;;;4.90;67.90;;;;;;4967537;28;20062;-53
2022/12/11 08:38:17;;;;;;;19.48;11.48;;;4.90;67.70;;;;;;4975860;28;20050;-54
2022/12/11 08:40:51;;;;;;;16.15;10.23;;;4.90;67.70;;;;;;4964968;28;20065;-52
2022/12/11 08:43:17;;;;;;;16.40;10.60;;;4.90;67.50;;;;;;4967030;28;20050;-54
2022/12/11 08:45:45;;;;;;;17.30;11.68;;;4.90;67.40;;;;;;4967735;28;20533;-52
2022/12/11 08:48:12;;;;;;;16.25;10.40;;;4.90;67.50;;;;;;4971435;28;20455;-54
2022/12/11 08:50:39;;;;;;;17.25;10.68;;;4.90;67.60;;;;;;4966342;28;20071;-53
2022/12/11 08:53:05;;;;;;;17.67;10.95;;;4.90;67.50;;;;;;4973399;28;20125;-51
2022/12/11 08:55:32;;;;;;;14.73;9.82;;;5.00;67.60;;;;;;4966390;28;20066;-51
2022/12/11 08:57:59;;;;;;;17.08;11.20;;;4.90;67.60;;;;;;4969386;28;20046;-53
2022/12/11 09:00:26;;;;;;;16.63;11.57;;;5.00;67.70;;;;;;4969096;28;20050;-49
2022/12/11 09:02:53;;;;;;;18.83;11.07;;;5.00;67.60;;;;;;4977109;28;20125;-50
2022/12/11 09:05:20;;;;;;;15.45;10.45;;;5.00;67.40;;;;;;4967662;28;20062;-50
2022/12/11 09:07:46;;;;;;;16.30;10.70;;;5.00;67.40;;;;;;4964430;28;20474;-51
2022/12/11 09:10:13;;;;;;;16.30;11.30;;;5.00;67.40;;;;;;4971694;28;20580;-51
2022/12/11 09:12:40;;;;;;;17.85;10.48;;;5.00;67.00;;;;;;4978727;28;20038;-52
2022/12/11 09:15:07;;;;;;;13.07;9.93;;;5.00;67.00;;;;;;4972898;28;20514;-52
2022/12/11 09:17:34;;;;;;;14.75;9.35;;;5.00;66.90;;;;;;4972342;28;20136;-53
2022/12/11 09:20:01;;;;;;;13.90;8.80;;;5.00;66.80;;;;;;4969724;28;20049;-49
2022/12/11 09:22:27;;;;;;;14.15;9.50;;;5.00;66.90;;;;;;4975036;28;20057;-50
2022/12/11 09:24:54;;;;;;;14.27;9.65;;;5.00;67.10;;;;;;4981728;28;20048;-54
2022/12/11 09:27:21;;;;;;;15.05;9.60;;;5.00;67.30;;;;;;4971793;28;20041;-50
2022/12/11 09:29:48;;;;;;;16.50;10.35;;;5.00;67.20;;;;;;4977567;28;20053;-52
2022/12/11 09:32:15;;;;;;;16.70;9.70;;;5.00;67.00;;;;;;4963424;28;20058;-54
2022/12/11 09:34:41;;;;;;;16.42;9.73;;;5.00;66.80;;;;;;4975687;28;20574;-51
2022/12/11 09:37:08;;;;;;;15.90;10.25;;;5.00;66.80;;;;;;4972442;28;20043;-60
2022/12/11 09:39:35;;;;;;;18.70;11.43;;;5.10;66.80;;;;;;4983954;28;20051;-50
2022/12/11 09:42:17;;;;;;;15.65;10.52;;;5.00;66.80;;;;;;4972612;28;20046;-53
2022/12/11 09:44:53;;;;;;;21.20;10.15;;;5.10;66.60;;;;;;4975018;28;20047;-53
2022/12/11 09:47:37;;;;;;;12.77;9.25;;;5.10;66.30;;;;;;4971756;28;20058;-51
2022/12/11 09:50:12;;;;;;;12.23;8.90;;;5.00;66.00;;;;;;4986118;28;20042;-52
2022/12/11 09:52:47;;;;;;;12.73;9.25;;;5.00;65.70;;;;;;4969040;28;20054;-51
2022/12/11 09:55:18;;;;;;;10.60;7.70;;;5.00;66.00;;;;;;4972324;28;20416;-51
2022/12/11 09:58:04;;;;;;;11.77;7.93;;;4.90;66.00;;;;;;4976792;28;20054;-50
2022/12/11 10:00:40;;;;;;;11.20;7.53;;;4.90;66.20;;;;;;4985821;28;20046;-49
2022/12/11 10:03:54;;;;;;;9.52;7.55;;;4.90;66.20;;;;;;4975519;28;20043;-52
2022/12/11 10:06:31;;;;;;;13.57;7.90;;;4.90;66.20;;;;;;4969437;28;20045;-52
2022/12/11 10:09:24;;;;;;;11.57;7.22;;;4.90;66.30;;;;;;4973907;28;20043;-51
2022/12/11 10:12:15;;;;;;;11.68;7.63;;;4.90;66.00;;;;;;4962222;28;20105;-53
2022/12/11 10:15:13;;;;;;;9.73;6.40;;;4.90;66.20;;;;;;4982308;28;20105;-52
2022/12/11 10:17:43;;;;;;;11.15;7.97;;;4.90;66.20;;;;;;4992178;28;20050;-52
2022/12/11 10:20:23;;;;;;;10.63;6.75;;;4.90;66.40;;;;;;4971773;28;20043;-53
2022/12/11 10:22:52;;;;;;;8.90;6.50;;;4.90;66.20;;;;;;4974756;28;20054;-52
2022/12/11 10:25:27;;;;;;;15.73;10.35;;;4.90;66.50;;;;;;4983499;28;20121;-52
2022/12/11 10:27:55;;;;;;;13.80;8.30;;;4.90;66.20;;;;;;4966786;28;20597;-52
2022/12/11 10:30:24;;;;;;;13.77;8.75;;;4.90;66.20;;;;;;4972670;28;20039;-49
2022/12/11 10:33:04;;;;;;;13.95;8.60;;;5.00;66.20;;;;;;4975003;28;20049;-53
2022/12/11 10:35:52;;;;;;;14.27;9.02;;;5.00;66.30;;;;;;4978309;28;20043;-53
2022/12/11 10:38:19;;;;;;;13.02;8.05;;;5.00;65.90;;;;;;4972892;28;20082;-53
2022/12/11 10:40:51;;;;;;;17.60;10.63;;;5.00;66.10;;;;;;4966781;28;20415;-53
2022/12/11 10:43:18;;;;;;;13.98;9.25;;;5.10;66.10;;;;;;4976603;28;20613;-53
2022/12/11 10:45:53;;;;;;;11.18;7.82;;;5.10;66.30;;;;;;4981603;28;20411;-50
2022/12/11 10:48:22;;;;;;;13.75;8.48;;;5.10;66.10;;;;;;4989333;28;20076;-50
2022/12/11 10:51:02;;;;;;;11.95;8.60;;;5.10;66.30;;;;;;4969377;28;20046;-52
2022/12/11 10:53:31;;;;;;;14.23;8.52;;;5.20;66.10;;;;;;4972223;28;20141;-49
2022/12/11 10:55:58;;;;;;;12.30;8.23;;;5.20;66.40;;;;;;4972472;28;20047;-49
2022/12/11 10:58:32;;;;;;;13.27;9.10;;;5.20;66.30;;;;;;4970527;28;20043;-52
2022/12/11 11:01:07;;;;;;;15.18;9.20;;;5.30;66.20;;;;;;4966009;28;20145;-51
2022/12/11 11:03:37;;;;;;;13.05;8.82;;;5.30;66.00;;;;;;4969345;28;20047;-52
2022/12/11 11:06:19;;;;;;;17.13;10.48;;;5.30;66.00;;;;;;4984270;28;20047;-53
2022/12/11 11:08:55;;;;;;;16.10;10.52;;;5.30;65.50;;;;;;4969505;28;20059;-50
2022/12/11 11:11:35;;;;;;;18.15;12.35;;;5.30;65.60;;;;;;4959352;28;20051;-52
2022/12/11 11:14:11;;;;;;;21.80;12.73;;;5.30;65.80;;;;;;4967331;28;20522;-51
2022/12/11 11:16:40;;;;;;;15.60;10.75;;;5.40;65.90;;;;;;4986913;28;20057;-50
2022/12/11 11:19:14;;;;;;;16.38;10.88;;;5.40;66.00;;;;;;4974728;28;20043;-50
2022/12/11 11:21:48;;;;;;;15.95;10.43;;;5.40;66.00;;;;;;4982066;28;20047;-50
2022/12/11 11:24:36;;;;;;;16.90;11.32;;;5.40;65.80;;;;;;4979540;28;20085;-50
2022/12/11 11:27:29;;;;;;;17.33;11.10;;;5.50;65.60;;;;;;4972676;28;20057;-54
2022/12/11 11:30:00;;;;;;;14.82;10.88;;;5.50;65.60;;;;;;4972319;28;20049;-53
2022/12/11 11:32:37;;;;;;;17.00;11.05;;;5.60;65.70;;;;;;4978966;28;20042;-51
2022/12/11 11:35:25;;;;;;;17.70;11.00;;;5.60;65.50;;;;;;4974334;28;20082;-50
2022/12/11 11:38:17;;;;;;;20.48;13.07;;;5.70;65.20;;;;;;4971453;28;20133;-50
2022/12/11 11:40:47;;;;;;;17.95;11.45;;;5.70;65.30;;;;;;4983538;28;20057;-50
2022/12/11 11:43:37;;;;;;;18.45;11.50;;;5.80;65.60;;;;;;4987529;28;20050;-50
2022/12/11 11:46:20;;;;;;;16.15;10.55;;;5.80;65.00;;;;;;4954873;28;20490;-50
2022/12/11 11:48:47;;;;;;;18.10;11.63;;;5.80;65.30;;;;;;4977986;28;20523;-50
2022/12/11 11:51:20;;;;;;;17.27;10.88;;;5.90;65.40;;;;;;4980842;28;20048;-49
2022/12/11 11:53:50;;;;;;;15.75;10.38;;;5.90;65.30;;;;;;4980133;28;20499;-50
2022/12/11 11:56:21;;;;;;;14.68;9.85;;;5.90;65.20;;;;;;4970059;28;20042;-50
2022/12/11 11:59:06;;;;;;;14.38;10.23;;;6.00;64.90;;;;;;4974768;28;20410;-53
2022/12/11 12:01:33;;;;;;;15.95;9.65;;;6.00;64.20;;;;;;4981258;28;20042;-51
2022/12/11 12:04:02;;;;;;;14.15;9.23;;;6.00;64.70;;;;;;4973060;28;20043;-54
2022/12/11 12:06:44;;;;;;;14.82;10.63;;;6.00;64.60;;;;;;4971780;28;20041;-50
2022/12/11 12:09:50;;;;;;;14.73;10.20;;;6.10;64.70;;;;;;4971982;28;20070;-50
2022/12/11 12:12:33;;;;;;;15.85;9.65;;;6.10;64.20;;;;;;4972033;28;20039;-50
2022/12/11 12:15:08;;;;;;;12.40;9.30;;;6.10;64.20;;;;;;4967439;28;20637;-50
2022/12/11 12:17:47;;;;;;;15.02;10.18;;;6.10;64.40;;;;;;4972238;28;20047;-51
2022/12/11 12:20:33;;;;;;;12.60;9.40;;;6.10;64.30;;;;;;4979217;28;20142;-52
2022/12/11 12:23:25;;;;;;;12.82;7.78;;;6.10;64.00;;;;;;4966686;28;20057;-52
2022/12/11 12:25:59;;;;;;;12.50;8.15;;;6.20;63.90;;;;;;4964680;28;20117;-50
2022/12/11 12:28:43;;;;;;;12.65;8.82;;;6.20;64.00;;;;;;4972819;28;20752;-52
2022/12/11 12:31:27;;;;;;;12.05;8.25;;;6.20;63.40;;;;;;4969782;28;20047;-49
2022/12/11 12:34:27;;;;;;;12.02;8.00;;;6.20;63.30;;;;;;4963531;28;20039;-50
2022/12/11 12:37:00;;;;;;;12.93;8.35;;;6.10;63.30;;;;;;4965064;28;20576;-52
2022/12/11 12:39:38;;;;;;;14.85;9.40;;;6.10;63.60;;;;;;4968097;28;20043;-50
2022/12/11 12:42:10;;;;;;;13.75;9.98;;;6.10;63.70;;;;;;4965508;28;20051;-52
2022/12/11 12:45:10;;;;;;;12.40;8.68;;;6.10;64.60;;;;;;4968879;28;20050;-51
2022/12/11 12:47:39;;;;;;;15.50;9.68;;;6.10;63.50;;;;;;4979132;28;20519;-50
2022/12/11 12:50:13;;;;;;;16.20;10.10;;;6.10;64.00;;;;;;4970103;28;20038;-54
2022/12/11 12:52:41;;;;;;;13.57;9.35;;;6.10;63.80;;;;;;4967927;28;20122;-49
2022/12/11 12:55:23;;;;;;;12.30;8.98;;;6.10;64.00;;;;;;4968250;28;20051;-50
2022/12/11 12:57:54;;;;;;;12.93;9.15;;;6.10;63.40;;;;;;4979147;28;20043;-50
2022/12/11 13:00:39;;;;;;;9.43;7.35;;;6.10;63.90;;;;;;4975755;28;20082;-50
2022/12/11 13:03:29;;;;;;;12.25;8.05;;;6.10;63.20;;;;;;4972405;28;20500;-52
2022/12/11 13:06:08;;;;;;;12.00;8.48;;;6.10;63.60;;;;;;4971198;28;20043;-50
2022/12/11 13:08:44;;;;;;;12.23;8.18;;;6.10;63.60;;;;;;4971015;28;20070;-52
2022/12/11 13:11:14;;;;;;;10.52;7.35;;;6.10;63.90;;;;;;4967877;28;20087;-50
2022/12/11 13:13:45;;;;;;;13.00;7.82;;;6.10;63.80;;;;;;4980911;28;20047;-53
2022/12/11 13:16:24;;;;;;;11.23;8.15;;;6.10;63.70;;;;;;4980370;28;20082;-51